sensor_id;sensor_type;location;lat;lon;timestamp;pressure;altitude;pressure_sealevel;temperature;humidity
19150;BME280;9707;49.158;8.632;2022-07-23T00:01:39;100229.50;;;31.25;37.37
19150;BME280;9707;49.158;8.632;2022-07-23T00:07:42;100216.97;;;31.22;37.58
19150;BME280;9707;49.158;8.632;2022-07-23T00:10:17;100217.84;;;31.23;37.95
19150;BME280;9707;49.158;8.632;2022-07-23T00:12:51;100224.22;;;31.23;37.96
19150;BME280;9707;49.158;8.632;2022-07-23T00:25:14;100242.03;;;31.13;37.50
19150;BME280;9707;49.158;8.632;2022-07-23T00:34:45;100248.16;;;31.08;37.38
19150;BME280;9707;49.158;8.632;2022-07-23T00:40:32;100243.19;;;31.04;37.46
19150;BME280;9707;49.158;8.632;2022-07-23T00:43:31;100245.97;;;31.04;37.92
19150;BME280;9707;49.158;8.632;2022-07-23T00:52:45;100249.47;;;30.98;37.82
19150;BME280;9707;49.158;8.632;2022-07-23T00:58:34;100248.63;;;30.97;37.67
19150;BME280;9707;49.158;8.632;2022-07-23T01:04:22;100261.09;;;30.93;37.97
19150;BME280;9707;49.158;8.632;2022-07-23T01:06:56;100253.66;;;30.94;37.94
19150;BME280;9707;49.158;8.632;2022-07-23T01:09:21;100247.31;;;30.93;38.01
19150;BME280;9707;49.158;8.632;2022-07-23T01:11:47;100240.97;;;30.93;37.82
19150;BME280;9707;49.158;8.632;2022-07-23T01:14:14;100238.03;;;30.94;37.75
19150;BME280;9707;49.158;8.632;2022-07-23T01:16:41;100243.53;;;30.94;37.92
19150;BME280;9707;49.158;8.632;2022-07-23T01:19:07;100252.59;;;30.95;37.92
19150;BME280;9707;49.158;8.632;2022-07-23T01:21:38;100250.91;;;30.94;38.33
19150;BME280;9707;49.158;8.632;2022-07-23T01:24:04;100246.47;;;30.93;38.01
19150;BME280;9707;49.158;8.632;2022-07-23T01:26:29;100242.66;;;30.94;38.33
19150;BME280;9707;49.158;8.632;2022-07-23T01:28:55;100247.31;;;30.93;38.13
19150;BME280;9707;49.158;8.632;2022-07-23T01:31:20;100242.00;;;30.92;37.94
19150;BME280;9707;49.158;8.632;2022-07-23T01:33:45;100256.59;;;30.92;38.18
19150;BME280;9707;49.158;8.632;2022-07-23T01:36:11;100258.50;;;30.92;37.73
19150;BME280;9707;49.158;8.632;2022-07-23T01:38:36;100254.06;;;30.91;37.56
19150;BME280;9707;49.158;8.632;2022-07-23T01:41:02;100251.31;;;30.91;37.83
19150;BME280;9707;49.158;8.632;2022-07-23T01:43:27;100235.81;;;30.90;37.53
19150;BME280;9707;49.158;8.632;2022-07-23T01:45:53;100244.31;;;30.88;37.39
19150;BME280;9707;49.158;8.632;2022-07-23T01:48:18;100245.13;;;30.89;37.59
19150;BME280;9707;49.158;8.632;2022-07-23T01:50:46;100242.56;;;30.87;37.51
19150;BME280;9707;49.158;8.632;2022-07-23T01:53:11;100238.97;;;30.87;37.07
19150;BME280;9707;49.158;8.632;2022-07-23T01:55:36;100233.47;;;30.87;37.15
19150;BME280;9707;49.158;8.632;2022-07-23T01:58:02;100234.53;;;30.86;37.17
19150;BME280;9707;49.158;8.632;2022-07-23T02:00:27;100241.06;;;30.85;36.87
19150;BME280;9707;49.158;8.632;2022-07-23T02:02:52;100250.34;;;30.84;37.08
19150;BME280;9707;49.158;8.632;2022-07-23T02:05:18;100256.91;;;30.83;36.95
19150;BME280;9707;49.158;8.632;2022-07-23T02:07:43;100248.00;;;30.81;36.66
19150;BME280;9707;49.158;8.632;2022-07-23T02:10:08;100251.78;;;30.80;36.74
19150;BME280;9707;49.158;8.632;2022-07-23T02:12:34;100261.09;;;30.79;36.70
19150;BME280;9707;49.158;8.632;2022-07-23T02:14:59;100264.00;;;30.77;36.53
19150;BME280;9707;49.158;8.632;2022-07-23T02:17:24;100262.31;;;30.76;36.88
19150;BME280;9707;49.158;8.632;2022-07-23T02:19:50;100279.00;;;30.75;36.79
19150;BME280;9707;49.158;8.632;2022-07-23T02:22:15;100280.91;;;30.74;36.72
19150;BME280;9707;49.158;8.632;2022-07-23T02:24:40;100274.56;;;30.74;36.48
19150;BME280;9707;49.158;8.632;2022-07-23T02:27:06;100283.03;;;30.72;36.68
19150;BME280;9707;49.158;8.632;2022-07-23T02:29:31;100268.59;;;30.70;36.40
19150;BME280;9707;49.158;8.632;2022-07-23T02:31:56;100268.78;;;30.69;36.21
19150;BME280;9707;49.158;8.632;2022-07-23T02:34:22;100271.53;;;30.69;36.15
19150;BME280;9707;49.158;8.632;2022-07-23T02:36:47;100275.31;;;30.68;36.24
19150;BME280;9707;49.158;8.632;2022-07-23T02:39:12;100276.38;;;30.67;36.36
19150;BME280;9707;49.158;8.632;2022-07-23T02:41:38;100280.16;;;30.66;36.53
19150;BME280;9707;49.158;8.632;2022-07-23T02:44:03;100283.06;;;30.64;36.35
19150;BME280;9707;49.158;8.632;2022-07-23T02:46:28;100287.69;;;30.64;36.64
19150;BME280;9707;49.158;8.632;2022-07-23T02:48:54;100294.25;;;30.63;36.42
19150;BME280;9707;49.158;8.632;2022-07-23T02:51:19;100298.06;;;30.62;36.56
19150;BME280;9707;49.158;8.632;2022-07-23T02:53:44;100300.16;;;30.60;36.12
19150;BME280;9707;49.158;8.632;2022-07-23T02:56:10;100301.16;;;30.59;36.21
19150;BME280;9707;49.158;8.632;2022-07-23T02:58:35;100295.00;;;30.57;36.26
19150;BME280;9707;49.158;8.632;2022-07-23T03:01:01;100306.00;;;30.57;36.08
19150;BME280;9707;49.158;8.632;2022-07-23T03:03:26;100312.56;;;30.56;36.28
19150;BME280;9707;49.158;8.632;2022-07-23T03:05:51;100320.81;;;30.56;36.30
19150;BME280;9707;49.158;8.632;2022-07-23T03:08:17;100313.63;;;30.55;36.27
19150;BME280;9707;49.158;8.632;2022-07-23T03:10:42;100321.19;;;30.53;36.65
19150;BME280;9707;49.158;8.632;2022-07-23T03:13:07;100322.22;;;30.52;36.63
19150;BME280;9707;49.158;8.632;2022-07-23T03:15:33;100325.84;;;30.52;36.37
19150;BME280;9707;49.158;8.632;2022-07-23T03:17:58;100329.59;;;30.51;36.68
19150;BME280;9707;49.158;8.632;2022-07-23T03:20:24;100335.97;;;30.52;36.86
19150;BME280;9707;49.158;8.632;2022-07-23T03:22:49;100338.91;;;30.50;36.43
19150;BME280;9707;49.158;8.632;2022-07-23T03:25:14;100341.81;;;30.49;36.31
19150;BME280;9707;49.158;8.632;2022-07-23T03:27:39;100345.63;;;30.48;36.51
19150;BME280;9707;49.158;8.632;2022-07-23T03:30:06;100335.03;;;30.45;36.41
19150;BME280;9707;49.158;8.632;2022-07-23T03:32:31;100332.28;;;30.45;36.69
19150;BME280;9707;49.158;8.632;2022-07-23T03:34:57;100321.28;;;30.45;36.64
19150;BME280;9707;49.158;8.632;2022-07-23T03:37:22;100324.03;;;30.45;36.67
19150;BME280;9707;49.158;8.632;2022-07-23T03:39:47;100329.53;;;30.45;36.83
19150;BME280;9707;49.158;8.632;2022-07-23T03:42:13;100330.53;;;30.44;36.96
19150;BME280;9707;49.158;8.632;2022-07-23T03:44:38;100329.72;;;30.43;36.91
19150;BME280;9707;49.158;8.632;2022-07-23T03:47:04;100331.59;;;30.43;37.02
19150;BME280;9707;49.158;8.632;2022-07-23T03:49:30;100325.03;;;30.44;36.71
19150;BME280;9707;49.158;8.632;2022-07-23T03:51:55;100324.22;;;30.43;37.02
19150;BME280;9707;49.158;8.632;2022-07-23T03:54:20;100322.50;;;30.42;36.98
19150;BME280;9707;49.158;8.632;2022-07-23T03:56:45;100338.78;;;30.44;36.65
19150;BME280;9707;49.158;8.632;2022-07-23T03:59:11;100338.13;;;30.42;36.76
19150;BME280;9707;49.158;8.632;2022-07-23T04:01:36;100352.25;;;30.39;36.97
19150;BME280;9707;49.158;8.632;2022-07-23T04:04:02;100357.72;;;30.39;36.91
19150;BME280;9707;49.158;8.632;2022-07-23T04:06:28;100356.03;;;30.38;37.13
19150;BME280;9707;49.158;8.632;2022-07-23T04:08:53;100363.22;;;30.39;37.23
19150;BME280;9707;49.158;8.632;2022-07-23T04:11:19;100375.28;;;30.38;37.01
19150;BME280;9707;49.158;8.632;2022-07-23T04:13:44;100394.50;;;30.38;36.97
19150;BME280;9707;49.158;8.632;2022-07-23T04:16:09;100398.31;;;30.37;37.24
19150;BME280;9707;49.158;8.632;2022-07-23T04:18:35;100396.59;;;30.36;37.15
19150;BME280;9707;49.158;8.632;2022-07-23T04:21:00;100391.13;;;30.36;37.01
19150;BME280;9707;49.158;8.632;2022-07-23T04:23:25;100361.94;;;30.35;37.13
19150;BME280;9707;49.158;8.632;2022-07-23T04:25:51;100376.31;;;30.37;37.14
19150;BME280;9707;49.158;8.632;2022-07-23T04:28:16;100382.88;;;30.36;37.50
19150;BME280;9707;49.158;8.632;2022-07-23T04:30:42;100383.91;;;30.35;37.24
19150;BME280;9707;49.158;8.632;2022-07-23T04:33:07;100404.16;;;30.34;37.56
19150;BME280;9707;49.158;8.632;2022-07-23T04:35:33;100407.97;;;30.33;37.28
19150;BME280;9707;49.158;8.632;2022-07-23T04:37:59;100400.41;;;30.35;37.40
19150;BME280;9707;49.158;8.632;2022-07-23T04:40:25;100393.16;;;30.34;37.61
19150;BME280;9707;49.158;8.632;2022-07-23T04:42:50;100384.09;;;30.33;37.65
19150;BME280;9707;49.158;8.632;2022-07-23T04:45:15;100382.19;;;30.34;37.52
19150;BME280;9707;49.158;8.632;2022-07-23T04:47:41;100379.13;;;30.29;37.76
19150;BME280;9707;49.158;8.632;2022-07-23T04:50:06;100393.16;;;30.34;37.96
19150;BME280;9707;49.158;8.632;2022-07-23T04:52:32;100391.47;;;30.33;38.00
19150;BME280;9707;49.158;8.632;2022-07-23T04:54:57;100396.97;;;30.33;37.89
19150;BME280;9707;49.158;8.632;2022-07-23T04:57:22;100399.06;;;30.31;37.93
19150;BME280;9707;49.158;8.632;2022-07-23T04:59:47;100415.38;;;30.32;37.72
19150;BME280;9707;49.158;8.632;2022-07-23T05:02:13;100409.19;;;30.30;37.98
19150;BME280;9707;49.158;8.632;2022-07-23T05:04:38;100404.56;;;30.31;37.87
19150;BME280;9707;49.158;8.632;2022-07-23T05:07:03;100429.28;;;30.31;37.81
19150;BME280;9707;49.158;8.632;2022-07-23T05:09:29;100432.22;;;30.29;38.10
19150;BME280;9707;49.158;8.632;2022-07-23T05:11:54;100436.84;;;30.29;37.79
19150;BME280;9707;49.158;8.632;2022-07-23T05:14:19;100451.63;;;30.28;37.86
19150;BME280;9707;49.158;8.632;2022-07-23T05:16:45;100462.81;;;30.26;38.11
19150;BME280;9707;49.158;8.632;2022-07-23T05:19:10;100467.47;;;30.26;37.87
19150;BME280;9707;49.158;8.632;2022-07-23T05:21:35;100455.59;;;30.25;37.64
19150;BME280;9707;49.158;8.632;2022-07-23T05:24:01;100442.03;;;30.24;37.07
19150;BME280;9707;49.158;8.632;2022-07-23T05:26:26;100444.78;;;30.24;37.21
19150;BME280;9707;49.158;8.632;2022-07-23T05:28:52;100434.84;;;30.23;37.09
19150;BME280;9707;49.158;8.632;2022-07-23T05:31:17;100439.13;;;30.25;37.48
19150;BME280;9707;49.158;8.632;2022-07-23T05:33:43;100431.91;;;30.24;37.65
19150;BME280;9707;49.158;8.632;2022-07-23T05:36:09;100437.22;;;30.26;37.90
19150;BME280;9707;49.158;8.632;2022-07-23T05:38:35;100441.03;;;30.25;37.73
19150;BME280;9707;49.158;8.632;2022-07-23T05:41:00;100431.91;;;30.24;38.01
19150;BME280;9707;49.158;8.632;2022-07-23T05:43:26;100429.16;;;30.24;38.14
19150;BME280;9707;49.158;8.632;2022-07-23T05:45:52;100420.06;;;30.24;38.78
19150;BME280;9707;49.158;8.632;2022-07-23T05:48:17;100421.78;;;30.25;38.51
19150;BME280;9707;49.158;8.632;2022-07-23T05:50:43;100429.00;;;30.26;38.90
19150;BME280;9707;49.158;8.632;2022-07-23T05:53:08;100423.50;;;30.26;38.92
19150;BME280;9707;49.158;8.632;2022-07-23T05:55:33;100426.06;;;30.27;38.79
19150;BME280;9707;49.158;8.632;2022-07-23T05:57:59;100425.84;;;30.29;39.43
19150;BME280;9707;49.158;8.632;2022-07-23T06:00:25;100433.25;;;30.28;39.45
19150;BME280;9707;49.158;8.632;2022-07-23T06:02:50;100447.84;;;30.29;39.65
19150;BME280;9707;49.158;8.632;2022-07-23T06:05:16;100450.59;;;30.29;39.62
19150;BME280;9707;49.158;8.632;2022-07-23T06:07:42;100453.16;;;30.30;39.62
19150;BME280;9707;49.158;8.632;2022-07-23T06:10:08;100439.59;;;30.29;39.51
19150;BME280;9707;49.158;8.632;2022-07-23T06:12:33;100431.16;;;30.30;39.20
19150;BME280;9707;49.158;8.632;2022-07-23T06:14:59;100424.63;;;30.31;39.36
19150;BME280;9707;49.158;8.632;2022-07-23T06:17:24;100432.88;;;30.31;39.82
19150;BME280;9707;49.158;8.632;2022-07-23T06:19:49;100443.88;;;30.31;39.61
19150;BME280;9707;49.158;8.632;2022-07-23T06:22:15;100448.53;;;30.31;39.73
19150;BME280;9707;49.158;8.632;2022-07-23T06:24:40;100454.03;;;30.31;39.49
19150;BME280;9707;49.158;8.632;2022-07-23T06:27:06;100450.22;;;30.32;39.47
19150;BME280;9707;49.158;8.632;2022-07-23T06:29:31;100455.72;;;30.32;39.47
19150;BME280;9707;49.158;8.632;2022-07-23T06:31:56;100461.22;;;30.32;39.53
19150;BME280;9707;49.158;8.632;2022-07-23T06:34:22;100473.09;;;30.32;38.89
19150;BME280;9707;49.158;8.632;2022-07-23T06:36:47;100481.34;;;30.32;39.15
19150;BME280;9707;49.158;8.632;2022-07-23T06:39:12;100485.78;;;30.33;39.20
19150;BME280;9707;49.158;8.632;2022-07-23T06:41:38;100488.53;;;30.33;38.93
19150;BME280;9707;49.158;8.632;2022-07-23T06:44:03;100495.56;;;30.36;38.98
19150;BME280;9707;49.158;8.632;2022-07-23T06:46:29;100506.56;;;30.36;38.67
19150;BME280;9707;49.158;8.632;2022-07-23T06:48:54;100497.25;;;30.37;38.93
19150;BME280;9707;49.158;8.632;2022-07-23T06:51:19;100495.16;;;30.39;38.60
19150;BME280;9707;49.158;8.632;2022-07-23T06:53:45;100488.84;;;30.38;38.60
19150;BME280;9707;49.158;8.632;2022-07-23T06:56:10;100485.03;;;30.39;38.78
19150;BME280;9707;49.158;8.632;2022-07-23T06:58:35;100476.63;;;30.41;38.87
19150;BME280;9707;49.158;8.632;2022-07-23T07:01:01;100467.34;;;30.42;38.44
19150;BME280;9707;49.158;8.632;2022-07-23T07:03:26;100477.09;;;30.44;38.26
19150;BME280;9707;49.158;8.632;2022-07-23T07:05:51;100482.44;;;30.46;38.35
19150;BME280;9707;49.158;8.632;2022-07-23T07:08:18;100497.00;;;30.46;38.02
19150;BME280;9707;49.158;8.632;2022-07-23T07:10:43;100503.19;;;30.48;38.23
19150;BME280;9707;49.158;8.632;2022-07-23T07:13:09;100495.78;;;30.49;38.14
19150;BME280;9707;49.158;8.632;2022-07-23T07:15:34;100494.56;;;30.51;38.35
19150;BME280;9707;49.158;8.632;2022-07-23T07:18:00;100500.94;;;30.52;38.27
19150;BME280;9707;49.158;8.632;2022-07-23T07:20:25;100494.19;;;30.54;38.46
19150;BME280;9707;49.158;8.632;2022-07-23T07:22:50;100506.72;;;30.57;38.58
19150;BME280;9707;49.158;8.632;2022-07-23T07:25:16;100500.19;;;30.58;38.57
19150;BME280;9707;49.158;8.632;2022-07-23T07:27:41;100501.06;;;30.58;38.24
19150;BME280;9707;49.158;8.632;2022-07-23T07:30:09;100501.53;;;30.62;38.24
19150;BME280;9707;49.158;8.632;2022-07-23T07:32:35;100503.22;;;30.63;38.60
19150;BME280;9707;49.158;8.632;2022-07-23T07:35:05;100509.44;;;30.65;38.41
19150;BME280;9707;49.158;8.632;2022-07-23T07:37:30;100508.41;;;30.66;38.16
19150;BME280;9707;49.158;8.632;2022-07-23T07:39:56;100515.63;;;30.67;37.87
19150;BME280;9707;49.158;8.632;2022-07-23T07:42:21;100511.81;;;30.68;38.07
19150;BME280;9707;49.158;8.632;2022-07-23T07:44:46;100508.88;;;30.69;38.04
19150;BME280;9707;49.158;8.632;2022-07-23T07:47:12;100505.97;;;30.71;37.98
19150;BME280;9707;49.158;8.632;2022-07-23T07:49:39;100516.97;;;30.71;37.55
19150;BME280;9707;49.158;8.632;2022-07-23T07:52:04;100524.16;;;30.72;38.20
19150;BME280;9707;49.158;8.632;2022-07-23T07:54:31;100526.75;;;30.73;38.11
19150;BME280;9707;49.158;8.632;2022-07-23T07:56:57;100528.63;;;30.73;37.90
19150;BME280;9707;49.158;8.632;2022-07-23T07:59:22;100527.56;;;30.74;38.14
19150;BME280;9707;49.158;8.632;2022-07-23T08:01:48;100528.44;;;30.74;38.31
19150;BME280;9707;49.158;8.632;2022-07-23T08:04:13;100530.16;;;30.75;37.82
19150;BME280;9707;49.158;8.632;2022-07-23T08:06:38;100529.78;;;30.78;38.04
19150;BME280;9707;49.158;8.632;2022-07-23T08:09:04;100526.00;;;30.79;37.85
19150;BME280;9707;49.158;8.632;2022-07-23T08:11:29;100524.28;;;30.78;37.98
19150;BME280;9707;49.158;8.632;2022-07-23T08:13:54;100528.56;;;30.81;37.25
19150;BME280;9707;49.158;8.632;2022-07-23T08:16:20;100530.09;;;30.83;37.40
19150;BME280;9707;49.158;8.632;2022-07-23T08:18:45;100528.16;;;30.84;37.64
19150;BME280;9707;49.158;8.632;2022-07-23T08:21:10;100532.63;;;30.85;37.48
19150;BME280;9707;49.158;8.632;2022-07-23T08:23:36;100536.25;;;30.85;37.53
19150;BME280;9707;49.158;8.632;2022-07-23T08:26:01;100533.31;;;30.87;37.06
19150;BME280;9707;49.158;8.632;2022-07-23T08:28:27;100533.31;;;30.87;37.09
19150;BME280;9707;49.158;8.632;2022-07-23T08:30:52;100533.97;;;30.89;37.01
19150;BME280;9707;49.158;8.632;2022-07-23T08:33:18;100537.59;;;30.89;37.31
19150;BME280;9707;49.158;8.632;2022-07-23T08:35:49;100538.44;;;30.90;37.32
19150;BME280;9707;49.158;8.632;2022-07-23T08:38:20;100539.31;;;30.90;37.21
19150;BME280;9707;49.158;8.632;2022-07-23T08:40:50;100530.88;;;30.92;37.45
19150;BME280;9707;49.158;8.632;2022-07-23T08:43:20;100530.88;;;30.92;37.38
19150;BME280;9707;49.158;8.632;2022-07-23T08:45:48;100544.44;;;30.93;37.26
19150;BME280;9707;49.158;8.632;2022-07-23T08:48:16;100533.44;;;30.93;37.82
19150;BME280;9707;49.158;8.632;2022-07-23T08:50:47;100538.72;;;30.95;37.43
19150;BME280;9707;49.158;8.632;2022-07-23T08:53:14;100548.50;;;30.97;37.44
19150;BME280;9707;49.158;8.632;2022-07-23T08:55:43;100548.31;;;30.99;37.73
19150;BME280;9707;49.158;8.632;2022-07-23T08:58:09;100547.50;;;30.98;37.81
19150;BME280;9707;49.158;8.632;2022-07-23T09:00:35;100542.81;;;30.99;37.88
19150;BME280;9707;49.158;8.632;2022-07-23T09:03:00;100543.50;;;31.01;38.02
19150;BME280;9707;49.158;8.632;2022-07-23T09:05:28;100527.66;;;31.03;37.74
19150;BME280;9707;49.158;8.632;2022-07-23T09:13:40;100531.75;;;31.07;37.31
19150;BME280;9707;49.158;8.632;2022-07-23T09:34:20;100534.00;;;31.26;37.45
19150;BME280;9707;49.158;8.632;2022-07-23T09:36:47;100523.84;;;31.26;37.28
19150;BME280;9707;49.158;8.632;2022-07-23T09:39:13;100539.13;;;31.29;37.45
19150;BME280;9707;49.158;8.632;2022-07-23T09:41:45;100537.06;;;31.31;37.45
19150;BME280;9707;49.158;8.632;2022-07-23T09:44:16;100534.94;;;31.33;36.87
19150;BME280;9707;49.158;8.632;2022-07-23T09:46:44;100532.84;;;31.35;37.50
19150;BME280;9707;49.158;8.632;2022-07-23T09:49:21;100535.41;;;31.36;37.46
19150;BME280;9707;49.158;8.632;2022-07-23T09:51:57;100530.78;;;31.37;37.35
19150;BME280;9707;49.158;8.632;2022-07-23T09:54:30;100532.50;;;31.38;37.10
19150;BME280;9707;49.158;8.632;2022-07-23T09:57:09;100538.00;;;31.38;36.51
19150;BME280;9707;49.158;8.632;2022-07-23T09:59:40;100533.34;;;31.38;36.45
19150;BME280;9707;49.158;8.632;2022-07-23T10:02:09;100527.63;;;31.40;36.65
19150;BME280;9707;49.158;8.632;2022-07-23T10:04:36;100535.53;;;31.43;36.91
19150;BME280;9707;49.158;8.632;2022-07-23T10:07:03;100535.53;;;31.43;36.36
19150;BME280;9707;49.158;8.632;2022-07-23T10:09:38;100538.28;;;31.43;36.28
19150;BME280;9707;49.158;8.632;2022-07-23T10:12:09;100531.72;;;31.44;36.34
19150;BME280;9707;49.158;8.632;2022-07-23T10:14:41;100547.88;;;31.47;36.24
19150;BME280;9707;49.158;8.632;2022-07-23T10:17:07;100549.56;;;31.48;35.64
19150;BME280;9707;49.158;8.632;2022-07-23T10:19:32;100545.13;;;31.47;36.28
19150;BME280;9707;49.158;8.632;2022-07-23T10:22:09;100540.28;;;31.49;35.80
19150;BME280;9707;49.158;8.632;2022-07-23T10:30:02;100539.22;;;31.50;35.56
19150;BME280;9707;49.158;8.632;2022-07-23T10:32:58;100530.97;;;31.50;35.71
19150;BME280;9707;49.158;8.632;2022-07-23T10:35:31;100539.91;;;31.52;35.55
19150;BME280;9707;49.158;8.632;2022-07-23T10:38:11;100534.41;;;31.52;35.51
19150;BME280;9707;49.158;8.632;2022-07-23T10:40:53;100534.19;;;31.53;35.39
19150;BME280;9707;49.158;8.632;2022-07-23T10:43:20;100536.75;;;31.55;35.42
19150;BME280;9707;49.158;8.632;2022-07-23T10:45:45;100541.22;;;31.56;35.62
19150;BME280;9707;49.158;8.632;2022-07-23T10:50:41;100531.94;;;31.57;35.33
19150;BME280;9707;49.158;8.632;2022-07-23T10:53:11;100521.75;;;31.57;35.13
19150;BME280;9707;49.158;8.632;2022-07-23T10:58:04;100535.34;;;31.59;34.05
19150;BME280;9707;49.158;8.632;2022-07-23T11:00:32;100529.47;;;31.62;34.89
19150;BME280;9707;49.158;8.632;2022-07-23T11:03:00;100539.25;;;31.64;34.61
19150;BME280;9707;49.158;8.632;2022-07-23T11:10:36;100533.31;;;31.67;33.98
19150;BME280;9707;49.158;8.632;2022-07-23T11:16:22;100535.03;;;31.68;33.33
19150;BME280;9707;49.158;8.632;2022-07-23T11:32:37;100535.16;;;31.75;33.65
19150;BME280;9707;49.158;8.632;2022-07-23T11:34:45;100533.09;;;31.77;34.48
19150;BME280;9707;49.158;8.632;2022-07-23T11:39:58;100520.84;;;31.79;33.88
19150;BME280;9707;49.158;8.632;2022-07-23T11:42:24;100523.38;;;31.81;33.19
19150;BME280;9707;49.158;8.632;2022-07-23T11:44:50;100522.13;;;31.83;33.60
19150;BME280;9707;49.158;8.632;2022-07-23T11:47:22;100525.56;;;31.85;33.29
19150;BME280;9707;49.158;8.632;2022-07-23T11:49:56;100518.13;;;31.86;33.93
19150;BME280;9707;49.158;8.632;2022-07-23T11:52:23;100529.84;;;31.88;33.81
19150;BME280;9707;49.158;8.632;2022-07-23T11:54:53;100505.69;;;31.90;34.35
19150;BME280;9707;49.158;8.632;2022-07-23T11:57:19;100517.41;;;31.92;33.80
19150;BME280;9707;49.158;8.632;2022-07-23T11:59:47;100513.59;;;31.93;34.06
19150;BME280;9707;49.158;8.632;2022-07-23T12:02:14;100511.47;;;31.95;33.98
19150;BME280;9707;49.158;8.632;2022-07-23T12:04:47;100512.16;;;31.97;33.71
19150;BME280;9707;49.158;8.632;2022-07-23T12:07:28;100514.69;;;31.98;34.14
19150;BME280;9707;49.158;8.632;2022-07-23T12:09:54;100501.59;;;32.00;34.26
19150;BME280;9707;49.158;8.632;2022-07-23T12:19:12;100492.28;;;32.01;33.02
19150;BME280;9707;49.158;8.632;2022-07-23T12:35:06;100475.13;;;32.06;33.10
19150;BME280;9707;49.158;8.632;2022-07-23T12:38:05;100475.81;;;32.08;33.23
19150;BME280;9707;49.158;8.632;2022-07-23T12:54:05;100475.69;;;32.16;33.10
19150;BME280;9707;49.158;8.632;2022-07-23T13:03:38;100468.09;;;32.18;32.49
19150;BME280;9707;49.158;8.632;2022-07-23T13:13:15;100466.72;;;32.28;32.96
19150;BME280;9707;49.158;8.632;2022-07-23T13:19:02;100472.31;;;32.35;33.24
19150;BME280;9707;49.158;8.632;2022-07-23T13:45:04;100462.31;;;32.55;32.49
19150;BME280;9707;49.158;8.632;2022-07-23T13:50:51;100466.22;;;32.60;32.10
19150;BME280;9707;49.158;8.632;2022-07-23T13:56:38;100450.56;;;32.67;31.48
19150;BME280;9707;49.158;8.632;2022-07-23T14:06:15;100453.84;;;32.77;nan
19150;BME280;9707;49.158;8.632;2022-07-23T14:18:48;100449.72;;;32.88;31.33
19150;BME280;9707;49.158;8.632;2022-07-23T14:24:35;100458.22;;;32.93;31.54
19150;BME280;9707;49.158;8.632;2022-07-23T14:34:15;100455.50;;;32.99;31.56
19150;BME280;9707;49.158;8.632;2022-07-23T14:43:23;100455.94;;;33.03;31.63
19150;BME280;9707;49.158;8.632;2022-07-23T14:49:10;100454.28;;;33.08;31.93
19150;BME280;9707;49.158;8.632;2022-07-23T15:28:21;100474.31;;;33.17;32.24
19150;BME280;9707;49.158;8.632;2022-07-23T15:34:08;100465.44;;;33.21;32.34
19150;BME280;9707;49.158;8.632;2022-07-23T15:43:29;100462.06;;;33.26;31.86
19150;BME280;9707;49.158;8.632;2022-07-23T15:53:02;100447.47;;;33.32;31.95
19150;BME280;9707;49.158;8.632;2022-07-23T16:02:11;100460.88;;;33.35;31.42
19150;BME280;9707;49.158;8.632;2022-07-23T16:08:00;100455.16;;;33.43;31.42
19150;BME280;9707;49.158;8.632;2022-07-23T16:10:34;100452.88;;;33.46;31.25
19150;BME280;9707;49.158;8.632;2022-07-23T16:20:02;100448.84;;;33.55;31.13
19150;BME280;9707;49.158;8.632;2022-07-23T16:22:37;100456.75;;;33.58;31.04
19150;BME280;9707;49.158;8.632;2022-07-23T16:28:24;100444.84;;;33.58;30.87
19150;BME280;9707;49.158;8.632;2022-07-23T16:38:05;100446.56;;;33.59;31.01
19150;BME280;9707;49.158;8.632;2022-07-23T16:44:01;100439.31;;;33.58;30.65
19150;BME280;9707;49.158;8.632;2022-07-23T16:46:28;100443.56;;;33.60;30.94
19150;BME280;9707;49.158;8.632;2022-07-23T16:56:05;100443.81;;;33.59;31.13
19150;BME280;9707;49.158;8.632;2022-07-23T17:01:52;100445.50;;;33.60;30.70
19150;BME280;9707;49.158;8.632;2022-07-23T17:07:49;100444.44;;;33.61;30.92
19150;BME280;9707;49.158;8.632;2022-07-23T17:10:36;100447.19;;;33.61;30.17
19150;BME280;9707;49.158;8.632;2022-07-23T17:29:50;100447.81;;;33.56;31.00
19150;BME280;9707;49.158;8.632;2022-07-23T17:35:37;100443.56;;;33.60;31.04
19150;BME280;9707;49.158;8.632;2022-07-23T17:44:45;100441.03;;;33.59;30.57
19150;BME280;9707;49.158;8.632;2022-07-23T17:47:11;100457.19;;;33.62;30.87
19150;BME280;9707;49.158;8.632;2022-07-23T17:56:50;100451.66;;;33.62;30.80
19150;BME280;9707;49.158;8.632;2022-07-23T18:02:37;100456.34;;;33.61;31.12
19150;BME280;9707;49.158;8.632;2022-07-23T18:18:34;100484.75;;;33.49;30.96
19150;BME280;9707;49.158;8.632;2022-07-23T18:28:14;100481.09;;;33.42;30.94
19150;BME280;9707;49.158;8.632;2022-07-23T18:37:35;100484.03;;;33.34;30.58
19150;BME280;9707;49.158;8.632;2022-07-23T18:43:22;100487.19;;;33.31;30.73
19150;BME280;9707;49.158;8.632;2022-07-23T18:45:56;100482.53;;;33.31;30.89
19150;BME280;9707;49.158;8.632;2022-07-23T18:55:15;100490.06;;;33.23;31.38
19150;BME280;9707;49.158;8.632;2022-07-23T19:04:34;100497.66;;;33.14;31.49
19150;BME280;9707;49.158;8.632;2022-07-23T19:10:37;100506.56;;;33.10;31.39
19150;BME280;9707;49.158;8.632;2022-07-23T19:13:12;100510.38;;;33.09;31.71
19150;BME280;9707;49.158;8.632;2022-07-23T19:19:08;100524.94;;;33.03;31.95
19150;BME280;9707;49.158;8.632;2022-07-23T19:28:17;100539.31;;;32.92;32.42
19150;BME280;9707;49.158;8.632;2022-07-23T19:47:11;100558.22;;;32.74;32.59
19150;BME280;9707;49.158;8.632;2022-07-23T19:52:57;100564.31;;;32.69;32.74
19150;BME280;9707;49.158;8.632;2022-07-23T20:08:40;100578.81;;;32.57;33.59
19150;BME280;9707;49.158;8.632;2022-07-23T20:11:15;100579.88;;;32.56;33.58
19150;BME280;9707;49.158;8.632;2022-07-23T20:17:03;100588.75;;;32.51;33.94
19150;BME280;9707;49.158;8.632;2022-07-23T20:22:50;100586.56;;;32.47;33.83
19150;BME280;9707;49.158;8.632;2022-07-23T20:25:34;100584.00;;;32.45;34.05
19150;BME280;9707;49.158;8.632;2022-07-23T20:31:21;100579.25;;;32.39;34.37
19150;BME280;9707;49.158;8.632;2022-07-23T20:33:58;100583.06;;;32.38;34.81